sensor_id;sensor_type;location;lat;lon;timestamp;P1;durP1;ratioP1;P2;durP2;ratioP2
31848;SDS011;18414;59.352;18.152;2022-10-16T00:01:35;19.60;;;13.73;;
31848;SDS011;18414;59.352;18.152;2022-10-16T00:04:01;19.58;;;14.40;;
31848;SDS011;18414;59.352;18.152;2022-10-16T00:06:27;20.33;;;13.80;;
31848;SDS011;18414;59.352;18.152;2022-10-16T00:08:53;19.52;;;13.80;;
31848;SDS011;18414;59.352;18.152;2022-10-16T00:11:23;20.13;;;13.27;;
31848;SDS011;18414;59.352;18.152;2022-10-16T00:13:57;19.83;;;13.63;;
31848;SDS011;18414;59.352;18.152;2022-10-16T00:16:25;19.58;;;13.32;;
31848;SDS011;18414;59.352;18.152;2022-10-16T00:18:51;19.63;;;13.50;;
31848;SDS011;18414;59.352;18.152;2022-10-16T00:21:20;18.65;;;12.80;;
31848;SDS011;18414;59.352;18.152;2022-10-16T00:23:52;15.57;;;12.05;;
31848;SDS011;18414;59.352;18.152;2022-10-16T00:26:31;18.33;;;12.70;;
31848;SDS011;18414;59.352;18.152;2022-10-16T00:29:00;17.92;;;12.00;;
31848;SDS011;18414;59.352;18.152;2022-10-16T00:31:26;17.55;;;12.45;;
31848;SDS011;18414;59.352;18.152;2022-10-16T00:33:52;20.25;;;13.23;;
31848;SDS011;18414;59.352;18.152;2022-10-16T00:36:18;17.00;;;12.15;;
31848;SDS011;18414;59.352;18.152;2022-10-16T00:38:45;14.57;;;11.82;;
31848;SDS011;18414;59.352;18.152;2022-10-16T00:41:12;15.98;;;12.02;;
31848;SDS011;18414;59.352;18.152;2022-10-16T00:51:17;17.63;;;12.05;;
31848;SDS011;18414;59.352;18.152;2022-10-16T00:53:44;16.90;;;11.60;;
31848;SDS011;18414;59.352;18.152;2022-10-16T00:56:10;15.48;;;11.27;;
31848;SDS011;18414;59.352;18.152;2022-10-16T00:58:36;15.55;;;11.35;;
31848;SDS011;18414;59.352;18.152;2022-10-16T01:01:01;15.15;;;11.82;;
31848;SDS011;18414;59.352;18.152;2022-10-16T01:03:28;17.33;;;11.43;;
31848;SDS011;18414;59.352;18.152;2022-10-16T01:08:44;14.35;;;10.50;;
31848;SDS011;18414;59.352;18.152;2022-10-16T01:11:41;13.30;;;10.18;;
31848;SDS011;18414;59.352;18.152;2022-10-16T01:14:07;15.38;;;11.07;;
31848;SDS011;18414;59.352;18.152;2022-10-16T01:17:01;13.48;;;11.10;;
31848;SDS011;18414;59.352;18.152;2022-10-16T01:22:20;13.90;;;10.50;;
31848;SDS011;18414;59.352;18.152;2022-10-16T01:24:48;13.45;;;10.65;;
31848;SDS011;18414;59.352;18.152;2022-10-16T01:27:15;12.30;;;10.38;;
31848;SDS011;18414;59.352;18.152;2022-10-16T01:35:20;13.57;;;10.30;;
31848;SDS011;18414;59.352;18.152;2022-10-16T01:37:50;12.60;;;9.93;;
31848;SDS011;18414;59.352;18.152;2022-10-16T01:40:19;12.95;;;10.15;;
31848;SDS011;18414;59.352;18.152;2022-10-16T01:42:50;12.55;;;9.80;;
31848;SDS011;18414;59.352;18.152;2022-10-16T01:45:18;14.68;;;10.82;;
31848;SDS011;18414;59.352;18.152;2022-10-16T01:47:44;13.32;;;9.80;;
31848;SDS011;18414;59.352;18.152;2022-10-16T01:50:10;14.07;;;9.88;;
31848;SDS011;18414;59.352;18.152;2022-10-16T01:52:39;15.50;;;11.10;;
31848;SDS011;18414;59.352;18.152;2022-10-16T01:55:06;12.55;;;10.25;;
31848;SDS011;18414;59.352;18.152;2022-10-16T01:57:34;14.00;;;10.13;;
31848;SDS011;18414;59.352;18.152;2022-10-16T02:00:04;16.13;;;10.25;;
31848;SDS011;18414;59.352;18.152;2022-10-16T02:02:35;14.32;;;10.65;;
31848;SDS011;18414;59.352;18.152;2022-10-16T02:05:03;13.23;;;10.00;;
31848;SDS011;18414;59.352;18.152;2022-10-16T02:07:32;13.30;;;9.85;;
31848;SDS011;18414;59.352;18.152;2022-10-16T02:09:57;13.35;;;9.98;;
31848;SDS011;18414;59.352;18.152;2022-10-16T02:12:30;11.38;;;9.18;;
31848;SDS011;18414;59.352;18.152;2022-10-16T02:14:57;13.40;;;10.52;;
31848;SDS011;18414;59.352;18.152;2022-10-16T02:17:23;11.30;;;10.07;;
31848;SDS011;18414;59.352;18.152;2022-10-16T02:19:49;12.43;;;10.50;;
31848;SDS011;18414;59.352;18.152;2022-10-16T02:22:27;14.75;;;10.68;;
31848;SDS011;18414;59.352;18.152;2022-10-16T02:24:56;16.13;;;10.50;;
31848;SDS011;18414;59.352;18.152;2022-10-16T02:27:35;13.05;;;10.82;;
31848;SDS011;18414;59.352;18.152;2022-10-16T02:32:37;16.20;;;10.00;;
31848;SDS011;18414;59.352;18.152;2022-10-16T02:35:04;13.18;;;10.43;;
31848;SDS011;18414;59.352;18.152;2022-10-16T02:37:30;12.93;;;10.32;;
31848;SDS011;18414;59.352;18.152;2022-10-16T02:39:56;14.52;;;10.70;;
31848;SDS011;18414;59.352;18.152;2022-10-16T02:42:27;12.85;;;9.82;;
31848;SDS011;18414;59.352;18.152;2022-10-16T02:44:53;14.38;;;10.93;;
31848;SDS011;18414;59.352;18.152;2022-10-16T02:47:18;12.77;;;10.45;;
31848;SDS011;18414;59.352;18.152;2022-10-16T02:49:44;12.30;;;9.57;;
31848;SDS011;18414;59.352;18.152;2022-10-16T02:52:09;15.13;;;10.50;;
31848;SDS011;18414;59.352;18.152;2022-10-16T02:54:35;14.27;;;10.30;;
31848;SDS011;18414;59.352;18.152;2022-10-16T02:57:00;14.93;;;10.15;;
31848;SDS011;18414;59.352;18.152;2022-10-16T02:59:26;13.88;;;10.50;;
31848;SDS011;18414;59.352;18.152;2022-10-16T03:01:51;12.23;;;9.90;;
31848;SDS011;18414;59.352;18.152;2022-10-16T03:04:16;11.95;;;9.68;;
31848;SDS011;18414;59.352;18.152;2022-10-16T03:06:42;17.27;;;10.70;;
31848;SDS011;18414;59.352;18.152;2022-10-16T03:09:08;12.50;;;9.73;;
31848;SDS011;18414;59.352;18.152;2022-10-16T03:11:34;11.95;;;9.18;;
31848;SDS011;18414;59.352;18.152;2022-10-16T03:14:00;11.63;;;9.63;;
31848;SDS011;18414;59.352;18.152;2022-10-16T03:16:25;11.18;;;8.63;;
31848;SDS011;18414;59.352;18.152;2022-10-16T03:18:50;10.68;;;8.93;;
31848;SDS011;18414;59.352;18.152;2022-10-16T03:21:16;15.70;;;8.88;;
31848;SDS011;18414;59.352;18.152;2022-10-16T03:23:41;10.95;;;9.00;;
31848;SDS011;18414;59.352;18.152;2022-10-16T03:26:07;10.95;;;8.10;;
31848;SDS011;18414;59.352;18.152;2022-10-16T03:28:32;12.45;;;8.45;;
31848;SDS011;18414;59.352;18.152;2022-10-16T03:30:58;10.57;;;8.60;;
31848;SDS011;18414;59.352;18.152;2022-10-16T03:33:23;12.77;;;8.73;;
31848;SDS011;18414;59.352;18.152;2022-10-16T03:35:52;11.60;;;8.52;;
31848;SDS011;18414;59.352;18.152;2022-10-16T03:38:18;11.82;;;8.07;;
31848;SDS011;18414;59.352;18.152;2022-10-16T03:40:43;10.55;;;7.88;;
31848;SDS011;18414;59.352;18.152;2022-10-16T03:43:09;10.15;;;8.10;;
31848;SDS011;18414;59.352;18.152;2022-10-16T03:45:34;10.55;;;8.05;;
31848;SDS011;18414;59.352;18.152;2022-10-16T03:47:59;9.63;;;7.95;;
31848;SDS011;18414;59.352;18.152;2022-10-16T03:50:25;10.85;;;7.50;;
31848;SDS011;18414;59.352;18.152;2022-10-16T03:52:50;8.93;;;7.30;;
31848;SDS011;18414;59.352;18.152;2022-10-16T03:55:15;11.50;;;7.68;;
31848;SDS011;18414;59.352;18.152;2022-10-16T03:57:41;8.50;;;7.13;;
31848;SDS011;18414;59.352;18.152;2022-10-16T04:00:06;11.50;;;7.53;;
31848;SDS011;18414;59.352;18.152;2022-10-16T04:02:32;11.48;;;7.50;;
31848;SDS011;18414;59.352;18.152;2022-10-16T04:04:58;7.60;;;6.63;;
31848;SDS011;18414;59.352;18.152;2022-10-16T04:07:23;6.97;;;6.28;;
31848;SDS011;18414;59.352;18.152;2022-10-16T04:09:48;10.73;;;6.82;;
31848;SDS011;18414;59.352;18.152;2022-10-16T04:12:14;8.73;;;6.78;;
31848;SDS011;18414;59.352;18.152;2022-10-16T04:14:39;8.48;;;6.82;;
31848;SDS011;18414;59.352;18.152;2022-10-16T04:17:04;7.35;;;6.55;;
31848;SDS011;18414;59.352;18.152;2022-10-16T04:19:30;8.23;;;6.90;;
31848;SDS011;18414;59.352;18.152;2022-10-16T04:21:55;8.75;;;6.60;;
31848;SDS011;18414;59.352;18.152;2022-10-16T04:24:20;9.90;;;7.32;;
31848;SDS011;18414;59.352;18.152;2022-10-16T04:26:46;9.25;;;6.90;;
31848;SDS011;18414;59.352;18.152;2022-10-16T04:29:11;8.27;;;6.68;;
31848;SDS011;18414;59.352;18.152;2022-10-16T04:31:36;9.50;;;6.97;;
31848;SDS011;18414;59.352;18.152;2022-10-16T04:34:02;8.55;;;6.45;;
31848;SDS011;18414;59.352;18.152;2022-10-16T04:36:27;11.07;;;7.15;;
31848;SDS011;18414;59.352;18.152;2022-10-16T04:38:52;10.10;;;6.55;;
31848;SDS011;18414;59.352;18.152;2022-10-16T04:41:18;8.82;;;6.80;;
31848;SDS011;18414;59.352;18.152;2022-10-16T04:43:44;8.38;;;6.50;;
31848;SDS011;18414;59.352;18.152;2022-10-16T04:46:09;7.90;;;6.30;;
31848;SDS011;18414;59.352;18.152;2022-10-16T04:48:35;8.13;;;6.20;;
31848;SDS011;18414;59.352;18.152;2022-10-16T04:51:00;6.95;;;6.22;;
31848;SDS011;18414;59.352;18.152;2022-10-16T04:53:26;7.45;;;6.03;;
31848;SDS011;18414;59.352;18.152;2022-10-16T04:55:51;7.10;;;6.40;;
31848;SDS011;18414;59.352;18.152;2022-10-16T04:58:17;7.50;;;6.22;;
31848;SDS011;18414;59.352;18.152;2022-10-16T05:00:42;7.25;;;5.93;;
31848;SDS011;18414;59.352;18.152;2022-10-16T05:03:09;8.13;;;5.78;;
31848;SDS011;18414;59.352;18.152;2022-10-16T05:05:35;7.45;;;5.80;;
31848;SDS011;18414;59.352;18.152;2022-10-16T05:08:00;6.53;;;5.68;;
31848;SDS011;18414;59.352;18.152;2022-10-16T05:10:26;7.78;;;5.93;;
31848;SDS011;18414;59.352;18.152;2022-10-16T05:12:51;11.10;;;6.20;;
31848;SDS011;18414;59.352;18.152;2022-10-16T05:15:17;10.53;;;6.37;;
31848;SDS011;18414;59.352;18.152;2022-10-16T05:17:43;9.73;;;6.20;;
31848;SDS011;18414;59.352;18.152;2022-10-16T05:20:08;7.90;;;5.90;;
31848;SDS011;18414;59.352;18.152;2022-10-16T05:22:34;9.85;;;5.88;;
31848;SDS011;18414;59.352;18.152;2022-10-16T05:24:59;9.27;;;6.30;;
31848;SDS011;18414;59.352;18.152;2022-10-16T05:27:25;8.05;;;5.60;;
31848;SDS011;18414;59.352;18.152;2022-10-16T05:29:50;8.82;;;6.22;;
31848;SDS011;18414;59.352;18.152;2022-10-16T05:32:16;12.07;;;6.32;;
31848;SDS011;18414;59.352;18.152;2022-10-16T05:34:42;7.78;;;6.25;;
31848;SDS011;18414;59.352;18.152;2022-10-16T05:37:08;6.82;;;6.13;;
31848;SDS011;18414;59.352;18.152;2022-10-16T05:39:34;8.60;;;6.90;;
31848;SDS011;18414;59.352;18.152;2022-10-16T05:41:59;7.97;;;6.15;;
31848;SDS011;18414;59.352;18.152;2022-10-16T05:44:24;9.57;;;6.70;;
31848;SDS011;18414;59.352;18.152;2022-10-16T05:46:50;8.02;;;6.30;;
31848;SDS011;18414;59.352;18.152;2022-10-16T05:49:15;8.98;;;6.60;;
31848;SDS011;18414;59.352;18.152;2022-10-16T05:51:41;8.70;;;6.93;;
31848;SDS011;18414;59.352;18.152;2022-10-16T05:54:06;9.02;;;7.10;;
31848;SDS011;18414;59.352;18.152;2022-10-16T05:56:33;9.18;;;6.90;;
31848;SDS011;18414;59.352;18.152;2022-10-16T05:58:58;10.48;;;7.10;;
31848;SDS011;18414;59.352;18.152;2022-10-16T06:01:23;10.05;;;7.00;;
31848;SDS011;18414;59.352;18.152;2022-10-16T06:03:52;9.23;;;7.65;;
31848;SDS011;18414;59.352;18.152;2022-10-16T06:06:19;12.18;;;7.88;;
31848;SDS011;18414;59.352;18.152;2022-10-16T06:08:45;10.90;;;8.20;;
31848;SDS011;18414;59.352;18.152;2022-10-16T06:11:13;10.90;;;7.70;;
31848;SDS011;18414;59.352;18.152;2022-10-16T06:13:40;9.68;;;7.50;;
31848;SDS011;18414;59.352;18.152;2022-10-16T06:16:07;12.50;;;7.90;;
31848;SDS011;18414;59.352;18.152;2022-10-16T06:18:33;10.30;;;7.85;;
31848;SDS011;18414;59.352;18.152;2022-10-16T06:20:59;11.70;;;8.50;;
31848;SDS011;18414;59.352;18.152;2022-10-16T06:23:24;10.45;;;8.25;;
31848;SDS011;18414;59.352;18.152;2022-10-16T06:25:50;11.68;;;8.77;;
31848;SDS011;18414;59.352;18.152;2022-10-16T06:28:16;11.52;;;9.32;;
31848;SDS011;18414;59.352;18.152;2022-10-16T06:30:41;11.68;;;8.95;;
31848;SDS011;18414;59.352;18.152;2022-10-16T06:33:09;14.18;;;9.45;;
31848;SDS011;18414;59.352;18.152;2022-10-16T06:35:35;10.43;;;8.85;;
31848;SDS011;18414;59.352;18.152;2022-10-16T06:38:01;14.05;;;9.90;;
31848;SDS011;18414;59.352;18.152;2022-10-16T06:40:26;14.70;;;10.13;;
31848;SDS011;18414;59.352;18.152;2022-10-16T06:42:54;13.90;;;10.27;;
31848;SDS011;18414;59.352;18.152;2022-10-16T06:45:19;14.32;;;10.55;;
31848;SDS011;18414;59.352;18.152;2022-10-16T06:47:45;14.48;;;10.15;;
31848;SDS011;18414;59.352;18.152;2022-10-16T06:50:10;14.80;;;10.90;;
31848;SDS011;18414;59.352;18.152;2022-10-16T06:52:36;14.50;;;10.77;;
31848;SDS011;18414;59.352;18.152;2022-10-16T06:55:01;14.35;;;10.63;;
31848;SDS011;18414;59.352;18.152;2022-10-16T06:57:28;14.27;;;10.13;;
31848;SDS011;18414;59.352;18.152;2022-10-16T06:59:53;15.73;;;10.48;;
31848;SDS011;18414;59.352;18.152;2022-10-16T07:02:19;14.70;;;11.05;;
31848;SDS011;18414;59.352;18.152;2022-10-16T07:04:44;15.35;;;10.50;;
31848;SDS011;18414;59.352;18.152;2022-10-16T07:07:10;15.25;;;11.20;;
31848;SDS011;18414;59.352;18.152;2022-10-16T07:09:35;16.65;;;11.38;;
31848;SDS011;18414;59.352;18.152;2022-10-16T07:12:01;15.35;;;11.77;;
31848;SDS011;18414;59.352;18.152;2022-10-16T07:14:26;14.93;;;11.23;;
31848;SDS011;18414;59.352;18.152;2022-10-16T07:16:52;18.73;;;11.50;;
31848;SDS011;18414;59.352;18.152;2022-10-16T07:19:17;19.05;;;12.10;;
31848;SDS011;18414;59.352;18.152;2022-10-16T07:21:43;17.15;;;11.93;;
31848;SDS011;18414;59.352;18.152;2022-10-16T07:24:13;17.33;;;11.70;;
31848;SDS011;18414;59.352;18.152;2022-10-16T07:26:40;15.15;;;12.27;;
31848;SDS011;18414;59.352;18.152;2022-10-16T07:29:13;15.45;;;11.52;;
31848;SDS011;18414;59.352;18.152;2022-10-16T07:31:39;16.27;;;11.52;;
31848;SDS011;18414;59.352;18.152;2022-10-16T07:34:05;13.82;;;10.45;;
31848;SDS011;18414;59.352;18.152;2022-10-16T07:36:30;14.43;;;10.32;;
31848;SDS011;18414;59.352;18.152;2022-10-16T07:38:56;14.52;;;10.15;;
31848;SDS011;18414;59.352;18.152;2022-10-16T07:41:21;12.75;;;10.07;;
31848;SDS011;18414;59.352;18.152;2022-10-16T07:43:51;13.07;;;10.35;;
31848;SDS011;18414;59.352;18.152;2022-10-16T07:46:17;11.73;;;9.70;;
31848;SDS011;18414;59.352;18.152;2022-10-16T07:48:43;11.23;;;8.82;;
31848;SDS011;18414;59.352;18.152;2022-10-16T07:51:12;13.00;;;8.60;;
31848;SDS011;18414;59.352;18.152;2022-10-16T07:53:38;10.02;;;7.80;;
31848;SDS011;18414;59.352;18.152;2022-10-16T07:56:04;10.95;;;7.75;;
31848;SDS011;18414;59.352;18.152;2022-10-16T07:58:31;11.80;;;7.55;;
31848;SDS011;18414;59.352;18.152;2022-10-16T08:00:56;11.80;;;7.70;;
31848;SDS011;18414;59.352;18.152;2022-10-16T08:03:23;8.02;;;6.28;;
31848;SDS011;18414;59.352;18.152;2022-10-16T08:05:50;7.57;;;6.47;;
31848;SDS011;18414;59.352;18.152;2022-10-16T08:08:16;8.10;;;6.28;;
31848;SDS011;18414;59.352;18.152;2022-10-16T08:10:41;7.55;;;6.10;;
31848;SDS011;18414;59.352;18.152;2022-10-16T08:13:07;9.23;;;6.10;;
31848;SDS011;18414;59.352;18.152;2022-10-16T08:15:33;6.32;;;4.97;;
31848;SDS011;18414;59.352;18.152;2022-10-16T08:17:59;6.47;;;5.15;;
31848;SDS011;18414;59.352;18.152;2022-10-16T08:20:26;6.55;;;5.13;;
31848;SDS011;18414;59.352;18.152;2022-10-16T08:22:52;6.88;;;5.20;;
31848;SDS011;18414;59.352;18.152;2022-10-16T08:25:18;7.13;;;4.97;;
31848;SDS011;18414;59.352;18.152;2022-10-16T08:27:44;8.07;;;5.72;;
31848;SDS011;18414;59.352;18.152;2022-10-16T08:30:09;6.15;;;4.78;;
31848;SDS011;18414;59.352;18.152;2022-10-16T08:32:35;7.53;;;5.13;;
31848;SDS011;18414;59.352;18.152;2022-10-16T08:35:00;5.60;;;4.90;;
31848;SDS011;18414;59.352;18.152;2022-10-16T08:37:29;6.85;;;4.90;;
31848;SDS011;18414;59.352;18.152;2022-10-16T08:39:55;7.35;;;4.82;;
31848;SDS011;18414;59.352;18.152;2022-10-16T08:50:22;6.05;;;4.82;;
31848;SDS011;18414;59.352;18.152;2022-10-16T08:52:50;7.20;;;4.55;;
31848;SDS011;18414;59.352;18.152;2022-10-16T08:55:29;4.90;;;4.40;;
31848;SDS011;18414;59.352;18.152;2022-10-16T08:57:58;6.97;;;4.38;;
31848;SDS011;18414;59.352;18.152;2022-10-16T09:00:24;5.22;;;4.47;;
31848;SDS011;18414;59.352;18.152;2022-10-16T09:03:05;6.00;;;4.72;;
31848;SDS011;18414;59.352;18.152;2022-10-16T09:10:59;5.25;;;4.40;;
31848;SDS011;18414;59.352;18.152;2022-10-16T09:13:34;6.20;;;4.28;;
31848;SDS011;18414;59.352;18.152;2022-10-16T09:16:17;6.53;;;4.50;;
31848;SDS011;18414;59.352;18.152;2022-10-16T09:21:25;8.07;;;4.22;;
31848;SDS011;18414;59.352;18.152;2022-10-16T09:23:52;8.13;;;4.47;;
31848;SDS011;18414;59.352;18.152;2022-10-16T09:26:19;5.88;;;4.22;;
31848;SDS011;18414;59.352;18.152;2022-10-16T09:28:46;6.80;;;3.92;;
31848;SDS011;18414;59.352;18.152;2022-10-16T09:31:13;6.82;;;3.75;;
31848;SDS011;18414;59.352;18.152;2022-10-16T09:33:41;6.88;;;3.55;;
31848;SDS011;18414;59.352;18.152;2022-10-16T09:36:09;6.95;;;3.85;;
31848;SDS011;18414;59.352;18.152;2022-10-16T09:38:36;6.65;;;3.63;;
31848;SDS011;18414;59.352;18.152;2022-10-16T09:41:13;6.38;;;3.60;;
31848;SDS011;18414;59.352;18.152;2022-10-16T09:43:54;5.30;;;3.42;;
31848;SDS011;18414;59.352;18.152;2022-10-16T09:46:25;7.07;;;3.42;;
31848;SDS011;18414;59.352;18.152;2022-10-16T09:48:51;5.07;;;3.05;;
31848;SDS011;18414;59.352;18.152;2022-10-16T09:53:54;5.57;;;3.35;;
31848;SDS011;18414;59.352;18.152;2022-10-16T09:56:31;5.60;;;3.15;;
31848;SDS011;18414;59.352;18.152;2022-10-16T09:58:58;6.07;;;2.85;;
31848;SDS011;18414;59.352;18.152;2022-10-16T10:01:29;6.35;;;3.22;;
31848;SDS011;18414;59.352;18.152;2022-10-16T10:04:01;10.88;;;3.65;;
31848;SDS011;18414;59.352;18.152;2022-10-16T10:11:40;7.40;;;3.70;;
31848;SDS011;18414;59.352;18.152;2022-10-16T10:14:17;5.50;;;3.35;;
31848;SDS011;18414;59.352;18.152;2022-10-16T10:16:45;5.97;;;3.22;;
31848;SDS011;18414;59.352;18.152;2022-10-16T10:19:21;6.07;;;3.60;;
31848;SDS011;18414;59.352;18.152;2022-10-16T10:21:48;4.97;;;3.25;;
31848;SDS011;18414;59.352;18.152;2022-10-16T10:24:15;5.28;;;3.35;;
31848;SDS011;18414;59.352;18.152;2022-10-16T10:26:57;7.68;;;3.13;;
31848;SDS011;18414;59.352;18.152;2022-10-16T10:29:30;6.72;;;3.40;;
31848;SDS011;18414;59.352;18.152;2022-10-16T10:32:08;9.05;;;3.47;;
31848;SDS011;18414;59.352;18.152;2022-10-16T10:34:53;4.65;;;3.50;;
31848;SDS011;18414;59.352;18.152;2022-10-16T10:37:51;4.25;;;2.80;;
31848;SDS011;18414;59.352;18.152;2022-10-16T10:43:37;4.70;;;3.30;;
31848;SDS011;18414;59.352;18.152;2022-10-16T10:45:52;4.60;;;3.08;;
31848;SDS011;18414;59.352;18.152;2022-10-16T10:48:27;3.83;;;2.83;;
31848;SDS011;18414;59.352;18.152;2022-10-16T10:51:00;7.72;;;3.30;;
31848;SDS011;18414;59.352;18.152;2022-10-16T10:53:34;4.35;;;3.00;;
31848;SDS011;18414;59.352;18.152;2022-10-16T11:01:59;4.95;;;2.90;;
31848;SDS011;18414;59.352;18.152;2022-10-16T11:08:16;7.32;;;3.10;;
31848;SDS011;18414;59.352;18.152;2022-10-16T11:10:53;7.03;;;2.75;;
31848;SDS011;18414;59.352;18.152;2022-10-16T11:13:30;5.28;;;2.53;;
31848;SDS011;18414;59.352;18.152;2022-10-16T11:16:01;6.43;;;2.50;;
31848;SDS011;18414;59.352;18.152;2022-10-16T11:18:39;3.53;;;2.40;;
31848;SDS011;18414;59.352;18.152;2022-10-16T11:21:10;8.10;;;2.83;;
31848;SDS011;18414;59.352;18.152;2022-10-16T11:26:17;4.72;;;2.20;;
31848;SDS011;18414;59.352;18.152;2022-10-16T11:28:48;7.28;;;2.42;;
31848;SDS011;18414;59.352;18.152;2022-10-16T11:33:41;5.30;;;2.55;;
31848;SDS011;18414;59.352;18.152;2022-10-16T11:36:14;6.88;;;2.80;;
31848;SDS011;18414;59.352;18.152;2022-10-16T11:41:42;3.70;;;2.30;;
31848;SDS011;18414;59.352;18.152;2022-10-16T11:44:19;6.13;;;2.80;;
31848;SDS011;18414;59.352;18.152;2022-10-16T11:46:58;5.13;;;2.90;;
31848;SDS011;18414;59.352;18.152;2022-10-16T11:49:29;4.95;;;2.38;;
31848;SDS011;18414;59.352;18.152;2022-10-16T11:54:50;4.13;;;2.47;;
31848;SDS011;18414;59.352;18.152;2022-10-16T11:57:22;5.75;;;2.75;;
31848;SDS011;18414;59.352;18.152;2022-10-16T11:59:57;7.13;;;2.58;;
31848;SDS011;18414;59.352;18.152;2022-10-16T12:05:11;6.07;;;2.90;;
31848;SDS011;18414;59.352;18.152;2022-10-16T12:10:29;7.18;;;2.90;;
31848;SDS011;18414;59.352;18.152;2022-10-16T12:12:57;6.35;;;2.45;;
31848;SDS011;18414;59.352;18.152;2022-10-16T12:15:29;7.28;;;2.70;;
31848;SDS011;18414;59.352;18.152;2022-10-16T12:17:56;8.35;;;2.90;;
31848;SDS011;18414;59.352;18.152;2022-10-16T12:23:06;5.32;;;2.90;;
31848;SDS011;18414;59.352;18.152;2022-10-16T12:25:39;7.50;;;3.00;;
31848;SDS011;18414;59.352;18.152;2022-10-16T12:30:40;5.28;;;2.90;;
31848;SDS011;18414;59.352;18.152;2022-10-16T12:33:15;6.25;;;3.10;;
31848;SDS011;18414;59.352;18.152;2022-10-16T12:35:45;6.05;;;3.15;;
31848;SDS011;18414;59.352;18.152;2022-10-16T12:38:21;3.42;;;2.75;;
31848;SDS011;18414;59.352;18.152;2022-10-16T12:40:59;4.75;;;2.85;;
31848;SDS011;18414;59.352;18.152;2022-10-16T12:43:34;3.38;;;2.67;;
31848;SDS011;18414;59.352;18.152;2022-10-16T12:48:46;4.35;;;2.80;;
31848;SDS011;18414;59.352;18.152;2022-10-16T12:51:33;4.80;;;2.72;;
31848;SDS011;18414;59.352;18.152;2022-10-16T13:04:27;5.88;;;2.80;;
31848;SDS011;18414;59.352;18.152;2022-10-16T13:15:16;5.50;;;2.53;;
31848;SDS011;18414;59.352;18.152;2022-10-16T13:26:09;3.92;;;2.33;;
31848;SDS011;18414;59.352;18.152;2022-10-16T13:28:42;4.07;;;2.53;;
31848;SDS011;18414;59.352;18.152;2022-10-16T13:31:13;4.38;;;2.80;;
31848;SDS011;18414;59.352;18.152;2022-10-16T13:33:43;3.45;;;2.10;;
31848;SDS011;18414;59.352;18.152;2022-10-16T13:36:21;3.25;;;2.60;;
31848;SDS011;18414;59.352;18.152;2022-10-16T13:38:59;3.60;;;2.20;;
31848;SDS011;18414;59.352;18.152;2022-10-16T13:41:44;5.10;;;2.20;;
31848;SDS011;18414;59.352;18.152;2022-10-16T13:44:14;3.30;;;2.22;;
31848;SDS011;18414;59.352;18.152;2022-10-16T13:46:41;3.63;;;2.10;;
31848;SDS011;18414;59.352;18.152;2022-10-16T13:49:13;3.22;;;2.28;;
31848;SDS011;18414;59.352;18.152;2022-10-16T13:51:40;5.78;;;2.55;;
31848;SDS011;18414;59.352;18.152;2022-10-16T13:54:07;4.97;;;2.80;;
31848;SDS011;18414;59.352;18.152;2022-10-16T13:56:34;6.57;;;2.70;;
31848;SDS011;18414;59.352;18.152;2022-10-16T13:59:04;5.40;;;2.63;;
31848;SDS011;18414;59.352;18.152;2022-10-16T14:01:32;5.03;;;2.60;;
31848;SDS011;18414;59.352;18.152;2022-10-16T14:04:04;5.15;;;2.30;;
31848;SDS011;18414;59.352;18.152;2022-10-16T14:06:31;4.35;;;2.22;;
31848;SDS011;18414;59.352;18.152;2022-10-16T14:11:27;5.80;;;2.28;;
31848;SDS011;18414;59.352;18.152;2022-10-16T14:13:53;4.55;;;1.95;;
31848;SDS011;18414;59.352;18.152;2022-10-16T14:16:20;7.05;;;2.33;;
31848;SDS011;18414;59.352;18.152;2022-10-16T14:18:50;7.60;;;2.38;;
31848;SDS011;18414;59.352;18.152;2022-10-16T14:21:22;4.07;;;2.00;;
31848;SDS011;18414;59.352;18.152;2022-10-16T14:23:47;5.22;;;2.20;;
31848;SDS011;18414;59.352;18.152;2022-10-16T14:26:14;5.68;;;2.00;;
31848;SDS011;18414;59.352;18.152;2022-10-16T14:28:41;4.10;;;1.95;;
31848;SDS011;18414;59.352;18.152;2022-10-16T14:33:44;3.65;;;2.10;;
31848;SDS011;18414;59.352;18.152;2022-10-16T14:38:35;5.55;;;2.55;;
31848;SDS011;18414;59.352;18.152;2022-10-16T14:41:01;4.53;;;2.28;;
31848;SDS011;18414;59.352;18.152;2022-10-16T14:43:31;9.98;;;3.10;;
31848;SDS011;18414;59.352;18.152;2022-10-16T14:45:59;4.68;;;2.55;;
31848;SDS011;18414;59.352;18.152;2022-10-16T14:48:24;5.55;;;2.45;;
31848;SDS011;18414;59.352;18.152;2022-10-16T14:50:50;4.40;;;2.20;;
31848;SDS011;18414;59.352;18.152;2022-10-16T14:53:15;3.33;;;2.13;;
31848;SDS011;18414;59.352;18.152;2022-10-16T14:55:41;3.50;;;2.22;;
31848;SDS011;18414;59.352;18.152;2022-10-16T14:58:20;4.65;;;2.40;;
31848;SDS011;18414;59.352;18.152;2022-10-16T15:00:47;4.78;;;2.25;;
31848;SDS011;18414;59.352;18.152;2022-10-16T15:03:12;3.08;;;2.25;;
31848;SDS011;18414;59.352;18.152;2022-10-16T15:05:38;6.13;;;2.38;;
31848;SDS011;18414;59.352;18.152;2022-10-16T15:08:04;4.38;;;2.47;;
31848;SDS011;18414;59.352;18.152;2022-10-16T15:10:29;4.95;;;2.25;;
31848;SDS011;18414;59.352;18.152;2022-10-16T15:12:56;5.18;;;2.50;;
31848;SDS011;18414;59.352;18.152;2022-10-16T15:17:47;9.52;;;2.20;;
31848;SDS011;18414;59.352;18.152;2022-10-16T15:20:13;8.52;;;2.45;;
31848;SDS011;18414;59.352;18.152;2022-10-16T15:22:39;5.50;;;2.30;;
31848;SDS011;18414;59.352;18.152;2022-10-16T15:27:58;7.70;;;2.97;;
31848;SDS011;18414;59.352;18.152;2022-10-16T15:30:24;7.43;;;2.70;;
31848;SDS011;18414;59.352;18.152;2022-10-16T15:32:50;6.78;;;3.08;;
31848;SDS011;18414;59.352;18.152;2022-10-16T15:35:15;3.72;;;1.35;;
31848;SDS011;18414;59.352;18.152;2022-10-16T15:37:41;3.45;;;1.10;;
31848;SDS011;18414;59.352;18.152;2022-10-16T15:40:07;1.02;;;0.80;;
31848;SDS011;18414;59.352;18.152;2022-10-16T15:42:33;3.05;;;1.10;;
31848;SDS011;18414;59.352;18.152;2022-10-16T15:44:59;3.33;;;0.90;;
31848;SDS011;18414;59.352;18.152;2022-10-16T15:47:24;2.17;;;1.10;;
31848;SDS011;18414;59.352;18.152;2022-10-16T15:49:50;1.83;;;0.90;;
31848;SDS011;18414;59.352;18.152;2022-10-16T15:52:15;2.75;;;1.00;;
31848;SDS011;18414;59.352;18.152;2022-10-16T15:54:41;2.05;;;1.00;;
31848;SDS011;18414;59.352;18.152;2022-10-16T15:57:07;3.93;;;0.87;;
31848;SDS011;18414;59.352;18.152;2022-10-16T15:59:32;0.98;;;0.82;;
31848;SDS011;18414;59.352;18.152;2022-10-16T16:01:57;3.03;;;1.00;;
31848;SDS011;18414;59.352;18.152;2022-10-16T16:04:23;2.50;;;0.90;;
31848;SDS011;18414;59.352;18.152;2022-10-16T16:06:48;2.05;;;0.98;;
31848;SDS011;18414;59.352;18.152;2022-10-16T16:09:13;2.10;;;0.97;;
31848;SDS011;18414;59.352;18.152;2022-10-16T16:11:39;2.30;;;1.20;;
31848;SDS011;18414;59.352;18.152;2022-10-16T16:14:05;2.67;;;0.87;;
31848;SDS011;18414;59.352;18.152;2022-10-16T16:16:31;3.77;;;1.00;;
31848;SDS011;18414;59.352;18.152;2022-10-16T16:19:01;2.60;;;1.10;;
31848;SDS011;18414;59.352;18.152;2022-10-16T16:21:27;3.20;;;1.13;;
31848;SDS011;18414;59.352;18.152;2022-10-16T16:23:54;2.10;;;0.90;;
31848;SDS011;18414;59.352;18.152;2022-10-16T16:26:26;2.07;;;1.17;;
31848;SDS011;18414;59.352;18.152;2022-10-16T16:28:55;3.87;;;1.13;;
31848;SDS011;18414;59.352;18.152;2022-10-16T16:31:28;3.92;;;1.63;;
31848;SDS011;18414;59.352;18.152;2022-10-16T16:33:54;5.20;;;1.40;;